This is the latest recevied weather packets stored in our database for station/object TA2EE-10. If no packets are shown the sender has not sent any weather packets the latest 10 day(s).
| Time | Temp. | Humidity | Pressure | Rain* | Wind** | Luminosity | Snow |
|---|---|---|---|---|---|---|---|
| 1777874661 | 13.33° C | 50% | 905 hPa | - | - | 0 W/m² | - |
| 1777872539 | 14.44° C | 50% | 905 hPa | - | - | 0 W/m² | - |
| 1777870417 | 13.89° C | 49% | 904 hPa | - | - | 0 W/m² | - |
| 1777868296 | 14.44° C | 48% | 904 hPa | - | - | 0 W/m² | - |
| 1777868228 | 14.44° C | 48% | 904 hPa | - | - | 0 W/m² | - |
| 1777866105 | 15° C | 47% | 904 hPa | - | - | 0 W/m² | - |
| 1777863983 | 15° C | 48% | 903 hPa | - | - | 0 W/m² | - |
| 1777861861 | 15° C | 48% | 903 hPa | - | - | 0 W/m² | - |
| 1777859738 | 15.56° C | 47% | 903 hPa | - | - | 0 W/m² | - |
| 1777857616 | 15.56° C | 47% | 903 hPa | - | - | 0 W/m² | - |
| 1777855494 | 15.56° C | 46% | 903 hPa | - | - | 0 W/m² | - |
| 1777853372 | 15.56° C | 44% | 903 hPa | - | - | 0 W/m² | - |
| 1777851250 | 15.56° C | 43% | 903 hPa | - | - | 0 W/m² | - |
| 1777849128 | 15.56° C | 44% | 902 hPa | - | - | 0 W/m² | - |
| 1777847006 | 16.11° C | 44% | 902 hPa | - | - | 0 W/m² | - |
| 1777844884 | 16.11° C | 44% | 902 hPa | - | - | 0 W/m² | - |
| 1777842761 | 16.67° C | 42% | 902 hPa | - | - | 0 W/m² | - |
| 1777840639 | 17.22° C | 43% | 902 hPa | - | - | 0 W/m² | - |
| 1777838517 | 17.22° C | 43% | 902 hPa | - | - | 0 W/m² | - |
| 1777836394 | 16.67° C | 45% | 902 hPa | - | - | 0 W/m² | - |
| 1777834272 | 18.33° C | 42% | 902 hPa | - | - | 0 W/m² | - |
| 1777832150 | 19.44° C | 40% | 902 hPa | - | - | 0 W/m² | - |
| 1777830028 | 19.44° C | 40% | 902 hPa | - | - | 0 W/m² | - |
| 1777827906 | 18.33° C | 41% | 902 hPa | - | - | 0 W/m² | - |
| 1777825784 | 18.33° C | 41% | 902 hPa | - | - | 0 W/m² | - |
* Rain since midnight (hover to see other rain measurements)
** Current wind speed in m/s (hover to see current wind gust speed)